createdAt,value
2023-03-01T00:01:54.817Z,27.50
2023-03-01T00:04:28.916Z,26.10
2023-03-01T00:06:57.552Z,27.40
2023-03-01T00:09:26.942Z,29.60
2023-03-01T00:11:55.349Z,30.80
2023-03-01T00:14:24.947Z,29.50
2023-03-01T00:16:54.422Z,27.10
2023-03-01T00:19:23.386Z,29.40
2023-03-01T00:21:51.838Z,29.70
2023-03-01T00:24:20.774Z,28.30
2023-03-01T00:26:49.380Z,30.70
2023-03-01T00:29:18.341Z,30.10
2023-03-01T00:31:46.822Z,26.50
2023-03-01T00:34:19.091Z,29.50
2023-03-01T00:36:47.332Z,26.10
2023-03-01T00:39:16.005Z,27.60
2023-03-01T00:41:45.768Z,26.70
2023-03-01T00:44:16.583Z,34.30
2023-03-01T00:46:44.623Z,27.80
2023-03-01T00:49:13.466Z,25.80
2023-03-01T00:51:42.930Z,26.00
2023-03-01T00:54:11.577Z,29.00
2023-03-01T00:56:41.585Z,32.90
2023-03-01T00:59:11.789Z,25.90
2023-03-01T01:01:42.106Z,33.60
2023-03-01T01:04:12.431Z,30.60
2023-03-01T01:06:46.940Z,36.40
2023-03-01T01:09:20.511Z,29.90
2023-03-01T01:11:52.432Z,32.50
2023-03-01T01:14:21.103Z,35.30
2023-03-01T01:16:50.225Z,32.30
2023-03-01T01:19:22.444Z,30.40
2023-03-01T01:21:51.852Z,25.30
2023-03-01T01:24:20.438Z,28.90
2023-03-01T01:26:49.589Z,28.70
2023-03-01T01:29:17.748Z,37.80
2023-03-01T01:31:46.383Z,38.00
2023-03-01T01:34:20.436Z,30.30
2023-03-01T01:36:54.245Z,33.20
2023-03-01T01:39:23.043Z,29.90
2023-03-01T01:41:51.507Z,25.60
2023-03-01T01:44:21.448Z,27.80
2023-03-01T01:46:50.748Z,32.40
2023-03-01T01:49:25.306Z,26.30
2023-03-01T01:52:05.281Z,29.10
2023-03-01T01:55:04.876Z,29.10
2023-03-01T01:57:55.585Z,30.50
2023-03-01T02:00:29.481Z,32.40
2023-03-01T02:03:12.706Z,25.00
2023-03-01T02:05:55.687Z,27.70
2023-03-01T02:08:27.963Z,30.80
2023-03-01T02:11:05.486Z,42.50
2023-03-01T02:13:39.854Z,37.10
2023-03-01T02:16:13.797Z,32.40
2023-03-01T02:18:42.892Z,30.00
2023-03-01T02:21:18.944Z,30.70
2023-03-01T02:23:51.057Z,28.50
2023-03-01T02:26:43.945Z,24.20
2023-03-01T02:29:12.616Z,26.70
2023-03-01T02:31:44.207Z,23.20
2023-03-01T02:34:22.540Z,29.40
2023-03-01T02:37:05.800Z,29.50
2023-03-01T02:39:49.152Z,31.60
2023-03-01T02:42:27.506Z,26.50
2023-03-01T02:44:59.550Z,26.00
2023-03-01T02:47:28.731Z,24.80
2023-03-01T02:49:57.205Z,22.80
2023-03-01T02:52:36.144Z,28.10
2023-03-01T02:55:13.042Z,22.60
2023-03-01T02:57:44.418Z,26.80
2023-03-01T03:00:22.426Z,24.80
2023-03-01T03:02:53.395Z,29.60
2023-03-01T03:05:28.251Z,39.90
2023-03-01T03:08:01.431Z,26.10
2023-03-01T03:10:33.874Z,27.70
2023-03-01T03:15:39.832Z,29.50
2023-03-01T03:18:12.082Z,57.40
2023-03-01T03:20:41.555Z,44.30
2023-03-01T03:23:12.945Z,39.60
2023-03-01T03:25:43.333Z,34.20
2023-03-01T03:28:12.849Z,30.00
2023-03-01T03:30:42.119Z,91.70
2023-03-01T03:33:13.417Z,64.10
2023-03-01T03:35:47.694Z,152.40
2023-03-01T03:38:18.114Z,91.50
2023-03-01T03:40:52.430Z,60.20
2023-03-01T03:43:22.869Z,31.80
2023-03-01T03:45:52.111Z,52.40
2023-03-01T03:48:21.661Z,59.00
2023-03-01T03:50:55.018Z,42.40
2023-03-01T03:53:24.980Z,76.60
2023-03-01T03:55:53.973Z,62.20
2023-03-01T03:58:23.699Z,75.80
2023-03-01T04:00:57.501Z,55.00
2023-03-01T04:03:27.828Z,63.70
2023-03-01T04:06:00.860Z,33.90
2023-03-01T04:08:30.692Z,28.20
2023-03-01T04:11:21.659Z,27.70
2023-03-01T04:13:51.223Z,37.50
2023-03-01T04:16:20.621Z,37.20
2023-03-01T04:18:49.339Z,47.10
2023-03-01T04:21:17.906Z,42.20
2023-03-01T04:23:46.566Z,43.40
2023-03-01T04:26:15.960Z,52.40
2023-03-01T04:28:46.487Z,91.50
2023-03-01T04:31:18.708Z,124.40
2023-03-01T04:33:55.250Z,143.30
2023-03-01T04:36:27.772Z,154.40
2023-03-01T04:38:56.529Z,177.90
2023-03-01T04:41:25.207Z,142.60
2023-03-01T04:43:54.227Z,149.60
2023-03-01T04:46:23.300Z,97.30
2023-03-01T04:48:56.237Z,111.70
2023-03-01T04:51:24.961Z,126.80
2023-03-01T04:53:54.526Z,103.70
2023-03-01T04:56:24.287Z,59.10
2023-03-01T04:58:54.773Z,35.80
2023-03-01T05:01:23.426Z,26.80
2023-03-01T05:03:52.430Z,25.70
2023-03-01T05:06:21.445Z,23.80
2023-03-01T05:08:50.038Z,19.50
2023-03-01T05:11:24.156Z,22.20
2023-03-01T05:13:56.196Z,24.80
2023-03-01T05:16:24.698Z,21.00
2023-03-01T05:18:56.809Z,23.70
2023-03-01T05:21:25.704Z,26.00
2023-03-01T05:23:59.597Z,18.60
2023-03-01T05:26:29.938Z,19.90
2023-03-01T05:29:00.730Z,18.70
2023-03-01T05:31:32.033Z,22.10
2023-03-01T05:34:00.933Z,19.90
2023-03-01T05:36:30.741Z,18.10
2023-03-01T05:38:59.490Z,19.60
2023-03-01T05:41:29.191Z,24.70
2023-03-01T05:43:58.177Z,21.90
2023-03-01T05:46:30.865Z,19.90
2023-03-01T05:49:01.321Z,19.20
2023-03-01T05:51:30.596Z,21.10
2023-03-01T05:53:59.176Z,19.70
2023-03-01T05:56:27.953Z,23.80
2023-03-01T05:58:56.925Z,19.80
2023-03-01T06:01:25.633Z,20.90
2023-03-01T06:03:54.632Z,19.80
2023-03-01T06:06:23.842Z,21.20
2023-03-01T06:08:52.956Z,16.90
2023-03-01T06:11:22.183Z,20.30
2023-03-01T06:13:50.909Z,21.70
2023-03-01T06:16:23.744Z,19.70
2023-03-01T06:18:52.482Z,18.00
2023-03-01T06:21:21.190Z,23.40
2023-03-01T06:23:50.087Z,22.70
2023-03-01T06:26:18.946Z,17.00
2023-03-01T06:28:47.360Z,20.90
2023-03-01T06:31:19.133Z,19.60
2023-03-01T06:33:47.829Z,18.50
2023-03-01T06:36:19.843Z,17.80
2023-03-01T06:38:49.378Z,15.10
2023-03-01T06:41:17.967Z,15.30
2023-03-01T06:43:46.774Z,15.70
2023-03-01T06:46:15.524Z,17.20
2023-03-01T06:48:44.215Z,16.50
2023-03-01T06:51:13.008Z,14.30
2023-03-01T06:53:42.724Z,15.20
2023-03-01T06:56:11.348Z,21.70
2023-03-01T06:58:40.259Z,18.10
2023-03-01T07:01:09.419Z,21.30
2023-03-01T07:03:38.092Z,15.70
2023-03-01T07:06:07.162Z,14.80
2023-03-01T07:08:36.104Z,14.90
2023-03-01T07:11:05.448Z,20.70
2023-03-01T07:13:36.450Z,39.20
2023-03-01T07:16:06.676Z,16.10
2023-03-01T07:18:35.310Z,19.10
2023-03-01T07:21:09.328Z,17.60
2023-03-01T07:23:40.667Z,15.80
2023-03-01T07:26:09.506Z,16.40
2023-03-01T07:28:40.312Z,14.20
2023-03-01T07:31:09.002Z,14.80
2023-03-01T07:33:38.801Z,25.20
2023-03-01T07:36:07.875Z,35.80
2023-03-01T07:38:38.078Z,35.40
2023-03-01T07:41:07.460Z,20.50
2023-03-01T07:43:36.513Z,23.30
2023-03-01T07:46:07.257Z,23.90
2023-03-01T07:48:36.934Z,17.40
2023-03-01T07:51:06.399Z,15.60
2023-03-01T07:53:37.418Z,16.50
2023-03-01T07:56:07.626Z,17.10
2023-03-01T07:58:37.079Z,13.80
2023-03-01T08:01:10.064Z,13.20
2023-03-01T08:03:39.237Z,13.60
2023-03-01T08:06:09.172Z,14.60
2023-03-01T08:08:38.546Z,14.30
2023-03-01T08:11:11.694Z,18.20
2023-03-01T08:14:01.086Z,16.50
2023-03-01T08:16:34.754Z,14.80
2023-03-01T08:19:06.627Z,13.20
2023-03-01T08:21:38.283Z,15.60
2023-03-01T08:24:07.880Z,11.30
2023-03-01T08:26:38.345Z,11.50
2023-03-01T08:29:07.378Z,16.70
2023-03-01T08:31:38.642Z,14.50
2023-03-01T08:34:09.658Z,224.30
2023-03-01T08:36:42.748Z,30.80
2023-03-01T08:39:13.159Z,25.40
2023-03-01T08:41:43.561Z,16.70
2023-03-01T08:44:13.085Z,12.30
2023-03-01T08:46:45.704Z,13.20
2023-03-01T08:49:16.220Z,13.60
2023-03-01T08:51:45.631Z,11.00
2023-03-01T08:54:16.921Z,11.90
2023-03-01T08:56:45.792Z,13.50
2023-03-01T08:59:16.829Z,15.50
2023-03-01T09:01:45.542Z,10.90
2023-03-01T09:04:15.425Z,11.40
2023-03-01T09:06:44.110Z,13.20
2023-03-01T09:09:16.711Z,11.10
2023-03-01T09:11:47.551Z,13.80
2023-03-01T09:14:20.154Z,10.80
2023-03-01T09:16:50.001Z,17.60
2023-03-01T09:19:18.725Z,11.80
2023-03-01T09:21:54.895Z,12.70
2023-03-01T09:24:24.510Z,10.30
2023-03-01T09:26:57.297Z,16.10
2023-03-01T09:29:27.169Z,12.40
2023-03-01T09:31:56.529Z,13.80
2023-03-01T09:34:25.557Z,13.20
2023-03-01T09:36:53.623Z,12.90
2023-03-01T09:39:22.023Z,14.60
2023-03-01T09:42:03.495Z,12.40
2023-03-01T09:44:47.765Z,16.30
2023-03-01T09:47:24.382Z,15.50
2023-03-01T09:50:13.209Z,16.00
2023-03-01T09:52:52.575Z,16.60
2023-03-01T09:55:28.928Z,12.60
2023-03-01T09:58:03.672Z,13.20
2023-03-01T10:00:43.908Z,14.30
2023-03-01T10:03:39.046Z,16.50
2023-03-01T10:06:27.343Z,13.00
2023-03-01T10:09:16.133Z,13.90
2023-03-01T10:11:51.321Z,13.00
2023-03-01T10:14:40.650Z,12.90
2023-03-01T10:17:28.883Z,12.10
2023-03-01T10:19:59.003Z,15.40
2023-03-01T10:22:29.580Z,19.10
2023-03-01T10:25:00.683Z,13.90
2023-03-01T10:27:53.138Z,14.10
2023-03-01T10:30:45.100Z,16.60
2023-03-01T10:33:22.646Z,13.90
2023-03-01T10:35:55.322Z,15.40
2023-03-01T10:38:24.194Z,13.00
2023-03-01T10:40:59.841Z,11.10
2023-03-01T10:43:42.132Z,16.00
2023-03-01T10:46:37.606Z,12.20
2023-03-01T10:49:20.705Z,12.70
2023-03-01T10:51:51.499Z,13.30
2023-03-01T10:54:29.384Z,17.20
2023-03-01T10:57:02.674Z,16.40
2023-03-01T10:59:35.941Z,21.60
2023-03-01T11:02:23.550Z,17.50
2023-03-01T11:04:58.159Z,17.40
2023-03-01T11:07:26.672Z,16.00
2023-03-01T11:10:12.613Z,18.70
2023-03-01T11:12:41.869Z,18.80
2023-03-01T11:15:29.387Z,19.40
2023-03-01T11:18:08.910Z,21.70
2023-03-01T11:20:41.759Z,24.70
2023-03-01T11:23:12.647Z,20.00
2023-03-01T11:25:50.549Z,19.60
2023-03-01T11:28:19.323Z,23.90
2023-03-01T11:31:13.509Z,20.80
2023-03-01T11:34:01.061Z,25.00
2023-03-01T11:36:42.841Z,18.40
2023-03-01T11:39:19.218Z,31.00
2023-03-01T11:41:50.201Z,22.90
2023-03-01T11:44:29.470Z,23.30
2023-03-01T11:47:21.050Z,23.30
2023-03-01T11:50:02.528Z,25.10
2023-03-01T11:53:02.840Z,22.30
2023-03-01T11:55:34.371Z,23.10
2023-03-01T11:58:22.271Z,20.80
2023-03-01T12:01:15.437Z,20.70
2023-03-01T12:03:59.587Z,22.80
2023-03-01T12:06:36.606Z,25.00
2023-03-01T12:09:18.375Z,24.20
2023-03-01T12:12:13.509Z,24.30
2023-03-01T12:14:50.573Z,28.50
2023-03-01T12:17:37.480Z,24.60
2023-03-01T12:20:33.432Z,24.30
2023-03-01T12:23:20.339Z,24.90
2023-03-01T12:25:53.745Z,35.90
2023-03-01T12:28:28.635Z,30.90
2023-03-01T12:31:29.526Z,28.00
2023-03-01T12:34:05.160Z,26.60
2023-03-01T12:36:49.678Z,25.50
2023-03-01T12:39:37.732Z,31.10
2023-03-01T12:42:30.254Z,31.70
2023-03-01T12:45:32.781Z,27.70
2023-03-01T12:48:13.313Z,30.00
2023-03-01T12:50:44.261Z,24.90
2023-03-01T12:53:36.230Z,24.90
2023-03-01T12:56:11.215Z,23.50
2023-03-01T12:59:06.459Z,29.70
2023-03-01T13:01:56.228Z,23.50
2023-03-01T13:04:30.454Z,29.00
2023-03-01T13:07:01.582Z,26.00
2023-03-01T13:09:36.159Z,26.60
2023-03-01T13:12:13.035Z,23.00
2023-03-01T13:14:48.074Z,30.20
2023-03-01T13:17:31.960Z,22.40
2023-03-01T13:20:00.819Z,28.90
2023-03-01T13:22:34.460Z,27.00
2023-03-01T13:25:16.400Z,24.60
2023-03-01T13:27:46.731Z,28.10
2023-03-01T13:30:39.078Z,27.20
2023-03-01T13:35:58.934Z,39.10
2023-03-01T13:39:08.679Z,29.30
2023-03-01T13:41:44.984Z,27.20
2023-03-01T13:44:37.421Z,30.10
2023-03-01T13:47:14.916Z,29.20
2023-03-01T13:49:51.237Z,27.40
2023-03-01T13:52:41.672Z,28.90
2023-03-01T13:55:17.977Z,31.20
2023-03-01T13:57:56.064Z,29.10
2023-03-01T14:00:32.748Z,24.80
2023-03-01T14:03:19.379Z,27.70
2023-03-01T14:06:17.323Z,25.40
2023-03-01T14:08:49.653Z,36.20
2023-03-01T14:11:40.346Z,29.40
2023-03-01T14:14:48.101Z,37.50
2023-03-01T14:17:33.033Z,27.10
2023-03-01T14:20:05.512Z,27.70
2023-03-01T14:22:35.422Z,30.30
2023-03-01T14:25:18.229Z,38.50
2023-03-01T14:27:53.582Z,34.60
2023-03-01T14:30:27.927Z,34.90
2023-03-01T14:33:02.083Z,28.90
2023-03-01T14:35:32.848Z,39.10
2023-03-01T14:38:02.275Z,30.60
2023-03-01T14:40:36.201Z,49.30
2023-03-01T14:43:11.456Z,31.20
2023-03-01T14:45:48.290Z,24.70
2023-03-01T14:48:17.703Z,33.80
2023-03-01T14:50:46.530Z,21.90
2023-03-01T14:53:26.412Z,22.10
2023-03-01T14:56:03.512Z,27.60
2023-03-01T14:58:37.518Z,21.20
2023-03-01T15:01:06.400Z,25.30
2023-03-01T15:03:36.185Z,29.70
2023-03-01T15:06:06.386Z,21.80
2023-03-01T15:08:35.459Z,33.20
2023-03-01T15:11:14.434Z,26.10
2023-03-01T15:13:43.190Z,30.20
2023-03-01T15:16:21.402Z,26.20
2023-03-01T15:18:52.010Z,25.70
2023-03-01T15:21:25.707Z,27.10
2023-03-01T15:23:56.155Z,28.90
2023-03-01T15:26:26.706Z,25.80
2023-03-01T15:28:59.273Z,26.60
2023-03-01T15:31:36.312Z,22.30
2023-03-01T15:34:25.323Z,25.30
2023-03-01T15:36:54.720Z,22.30
2023-03-01T15:39:32.857Z,25.20
2023-03-01T15:42:02.258Z,27.30
2023-03-01T15:44:42.760Z,26.70
2023-03-01T15:47:31.036Z,24.90
2023-03-01T15:50:00.900Z,22.70
2023-03-01T15:52:40.490Z,33.70
2023-03-01T15:55:18.664Z,22.40
2023-03-01T15:57:48.465Z,25.70
2023-03-01T16:00:18.577Z,38.20
2023-03-01T16:02:47.413Z,44.90
2023-03-01T16:05:23.116Z,35.30
2023-03-01T16:07:52.388Z,25.80
2023-03-01T16:10:23.559Z,26.10
2023-03-01T16:12:54.994Z,24.70
2023-03-01T16:15:25.767Z,32.50
2023-03-01T16:17:55.096Z,29.10
2023-03-01T16:20:29.110Z,32.40
2023-03-01T16:23:01.269Z,28.80
2023-03-01T16:25:30.747Z,36.20
2023-03-01T16:28:01.948Z,27.70
2023-03-01T16:30:31.831Z,30.20
2023-03-01T16:33:00.416Z,27.60
2023-03-01T16:35:30.391Z,32.60
2023-03-01T16:38:00.894Z,28.60
2023-03-01T16:40:33.828Z,37.70
2023-03-01T16:43:02.621Z,31.50
2023-03-01T16:45:37.805Z,30.20
2023-03-01T16:48:06.704Z,30.90
2023-03-01T16:50:35.425Z,34.90
2023-03-01T16:53:23.773Z,35.50
2023-03-01T16:55:59.301Z,33.00
2023-03-01T16:58:28.617Z,35.20
2023-03-01T17:00:57.957Z,30.70
2023-03-01T17:03:28.312Z,31.20
2023-03-01T17:05:57.465Z,25.70
2023-03-01T17:08:26.688Z,35.50
2023-03-01T17:10:55.424Z,28.00
2023-03-01T17:13:27.246Z,36.00
2023-03-01T17:15:57.332Z,44.00
2023-03-01T17:18:26.001Z,27.50
2023-03-01T17:20:54.749Z,28.70
2023-03-01T17:23:24.788Z,30.30
2023-03-01T17:25:56.293Z,32.10
2023-03-01T17:28:26.396Z,37.40
2023-03-01T17:30:55.186Z,28.50
2023-03-01T17:33:25.234Z,34.40
2023-03-01T17:35:54.477Z,27.20
2023-03-01T17:38:23.379Z,32.50
2023-03-01T17:40:52.530Z,30.00
2023-03-01T17:43:26.520Z,27.50
2023-03-01T17:45:55.773Z,31.50
2023-03-01T17:48:24.604Z,26.40
2023-03-01T17:51:13.066Z,33.40
2023-03-01T17:53:43.168Z,28.40
2023-03-01T17:56:11.887Z,34.70
2023-03-01T17:58:40.995Z,35.30
2023-03-01T18:01:19.254Z,37.60
2023-03-01T18:03:48.025Z,36.70
2023-03-01T18:06:18.559Z,34.60
2023-03-01T18:08:50.862Z,24.90
2023-03-01T18:11:26.242Z,38.10
2023-03-01T18:13:55.571Z,36.80
2023-03-01T18:16:24.442Z,40.20
2023-03-01T18:18:58.829Z,42.20
2023-03-01T18:21:29.137Z,40.50
2023-03-01T18:23:59.782Z,37.60
2023-03-01T18:26:30.076Z,43.20
2023-03-01T18:29:01.648Z,41.60
2023-03-01T18:31:33.774Z,40.30
2023-03-01T18:34:04.073Z,38.60
2023-03-01T18:36:35.094Z,41.80
2023-03-01T18:39:05.733Z,36.90
2023-03-01T18:41:34.767Z,38.70
2023-03-01T18:44:04.564Z,30.10
2023-03-01T18:46:36.270Z,33.10
2023-03-01T18:49:07.154Z,39.00
2023-03-01T18:51:37.134Z,38.30
2023-03-01T18:56:41.193Z,35.80
2023-03-01T18:59:10.327Z,38.00
2023-03-01T19:01:40.421Z,36.50
2023-03-01T19:04:11.256Z,41.20
2023-03-01T19:06:40.039Z,33.10
2023-03-01T19:09:08.847Z,36.10
2023-03-01T19:11:38.913Z,43.80
2023-03-01T19:14:08.759Z,38.90
2023-03-01T19:16:41.232Z,33.70
2023-03-01T19:19:14.429Z,30.20
2023-03-01T19:21:47.014Z,40.70
2023-03-01T19:24:19.767Z,36.20
2023-03-01T19:26:48.865Z,37.70
2023-03-01T19:29:19.224Z,40.00
2023-03-01T19:31:48.302Z,36.50
2023-03-01T19:34:17.037Z,42.60
2023-03-01T19:36:48.777Z,38.30
2023-03-01T19:39:17.622Z,39.50
2023-03-01T19:41:49.034Z,36.90
2023-03-01T19:44:19.341Z,33.40
2023-03-01T19:46:48.827Z,31.70
2023-03-01T19:49:18.195Z,34.90
2023-03-01T19:51:47.308Z,31.10
2023-03-01T19:54:20.371Z,37.60
2023-03-01T19:56:49.927Z,37.00
2023-03-01T19:59:24.744Z,41.60
2023-03-01T20:01:54.511Z,36.40
2023-03-01T20:04:23.410Z,44.40
2023-03-01T20:06:53.090Z,45.60
2023-03-01T20:09:22.698Z,51.00
2023-03-01T20:11:52.293Z,41.50
2023-03-01T20:14:27.696Z,42.50
2023-03-01T20:16:57.823Z,42.80
2023-03-01T20:19:26.823Z,38.20
2023-03-01T20:22:03.730Z,42.90
2023-03-01T20:27:03.269Z,43.30
2023-03-01T20:29:32.813Z,34.50
2023-03-01T20:32:01.791Z,43.90
2023-03-01T20:34:31.956Z,38.00
2023-03-01T20:37:00.798Z,33.50
2023-03-01T20:39:29.925Z,52.50
2023-03-01T20:41:58.686Z,37.60
2023-03-01T20:44:28.271Z,38.80
2023-03-01T20:46:56.986Z,35.60
2023-03-01T20:49:26.300Z,34.10
2023-03-01T20:51:54.906Z,37.40
2023-03-01T20:54:28.061Z,36.10
2023-03-01T20:56:56.629Z,30.50
2023-03-01T20:59:25.468Z,36.30
2023-03-01T21:01:54.810Z,37.20
2023-03-01T21:04:23.352Z,42.80
2023-03-01T21:06:51.968Z,40.10
2023-03-01T21:09:20.783Z,34.20
2023-03-01T21:11:50.821Z,38.10
2023-03-01T21:14:19.712Z,34.70
2023-03-01T21:16:48.317Z,33.30
2023-03-01T21:19:17.044Z,33.10
2023-03-01T21:21:46.463Z,48.80
2023-03-01T21:24:15.678Z,40.80
2023-03-01T21:26:45.817Z,40.50
2023-03-01T21:29:14.771Z,38.80
2023-03-01T21:31:43.671Z,40.10
2023-03-01T21:34:12.979Z,42.60
2023-03-01T21:36:42.396Z,40.90
2023-03-01T21:39:12.082Z,41.20
2023-03-01T21:41:40.748Z,37.90
2023-03-01T21:44:09.700Z,35.20
2023-03-01T21:46:39.505Z,32.50
2023-03-01T21:49:10.179Z,31.90
2023-03-01T21:51:38.867Z,38.80
2023-03-01T21:54:14.661Z,29.80
2023-03-01T21:56:43.901Z,33.30
2023-03-01T21:59:23.189Z,31.30
2023-03-01T22:01:51.669Z,29.80
2023-03-01T22:04:21.476Z,35.00
2023-03-01T22:06:54.493Z,30.40
2023-03-01T22:09:23.446Z,30.50
2023-03-01T22:11:54.605Z,27.60
2023-03-01T22:14:22.926Z,27.00
2023-03-01T22:16:54.125Z,31.10
2023-03-01T22:19:22.772Z,29.00
2023-03-01T22:21:52.046Z,40.30
2023-03-01T22:24:23.626Z,32.50
2023-03-01T22:26:52.198Z,34.80
2023-03-01T22:29:29.049Z,28.40
2023-03-01T22:31:57.972Z,30.00
2023-03-01T22:34:27.138Z,30.20
2023-03-01T22:36:56.767Z,32.90
2023-03-01T22:39:25.191Z,32.10
2023-03-01T22:41:56.917Z,27.40
2023-03-01T22:44:26.435Z,28.40
2023-03-01T22:46:57.885Z,27.80
2023-03-01T22:49:25.946Z,25.70
2023-03-01T22:51:54.047Z,25.60
2023-03-01T22:54:22.158Z,30.50
2023-03-01T22:56:51.009Z,25.10
2023-03-01T22:59:22.755Z,32.30
2023-03-01T23:01:52.384Z,31.00
2023-03-01T23:04:22.010Z,27.20
2023-03-01T23:06:50.965Z,28.60
2023-03-01T23:09:25.744Z,28.80
2023-03-01T23:11:55.306Z,28.10
2023-03-01T23:14:31.334Z,30.00
2023-03-01T23:17:01.883Z,27.40
2023-03-01T23:19:31.184Z,26.90
2023-03-01T23:21:59.601Z,24.00
2023-03-01T23:24:32.125Z,28.80
2023-03-01T23:27:02.307Z,25.20
2023-03-01T23:29:31.862Z,25.70
2023-03-01T23:32:00.616Z,31.50
2023-03-01T23:34:29.444Z,24.50
2023-03-01T23:36:58.840Z,28.20
2023-03-01T23:39:27.870Z,29.10
2023-03-01T23:41:57.205Z,29.80
2023-03-01T23:44:27.911Z,25.30
2023-03-01T23:47:07.773Z,29.90
2023-03-01T23:49:40.865Z,38.00
2023-03-01T23:52:13.258Z,32.10
2023-03-01T23:54:41.840Z,31.20
2023-03-01T23:57:10.541Z,24.10
2023-03-01T23:59:41.196Z,33.40
